createdAt,value
2023-03-14T00:01:46.191Z,2.70
2023-03-14T00:04:13.802Z,2.83
2023-03-14T00:06:41.415Z,2.97
2023-03-14T00:09:10.637Z,2.10
2023-03-14T00:19:27.505Z,2.50
2023-03-14T00:21:53.785Z,2.45
2023-03-14T00:24:20.047Z,2.33
2023-03-14T00:26:46.233Z,1.87
2023-03-14T00:29:12.426Z,2.00
2023-03-14T00:31:39.843Z,2.58
2023-03-14T00:34:06.156Z,2.30
2023-03-14T00:40:10.864Z,2.50
2023-03-14T00:42:38.502Z,2.30
2023-03-14T00:45:06.637Z,2.97
2023-03-14T00:47:34.232Z,2.10
2023-03-14T00:50:02.224Z,3.07
2023-03-14T00:52:29.943Z,2.88
2023-03-14T00:54:57.582Z,2.22
2023-03-14T00:57:26.653Z,2.45
2023-03-14T00:59:54.599Z,2.78
2023-03-14T01:02:22.263Z,2.03
2023-03-14T01:04:50.642Z,1.73
2023-03-14T01:07:18.294Z,2.15
2023-03-14T01:09:45.926Z,2.13
2023-03-14T01:12:13.736Z,2.65
2023-03-14T01:14:45.167Z,2.33
2023-03-14T01:17:14.237Z,2.58
2023-03-14T01:19:41.983Z,2.10
2023-03-14T01:22:09.597Z,2.50
2023-03-14T01:24:38.839Z,2.20
2023-03-14T01:27:06.453Z,1.73
2023-03-14T01:29:34.120Z,1.95
2023-03-14T01:32:01.704Z,2.90
2023-03-14T01:34:30.887Z,2.30
2023-03-14T01:36:58.664Z,2.83
2023-03-14T01:39:26.482Z,2.37
2023-03-14T01:41:54.131Z,2.00
2023-03-14T01:44:21.805Z,2.13
2023-03-14T01:46:49.652Z,2.47
2023-03-14T01:49:20.273Z,2.67
2023-03-14T01:51:51.969Z,2.20
2023-03-14T01:54:22.003Z,2.20
2023-03-14T01:56:52.670Z,2.25
2023-03-14T01:59:20.472Z,1.92
2023-03-14T02:01:49.420Z,2.28
2023-03-14T02:04:18.273Z,1.97
2023-03-14T02:06:51.748Z,2.33
2023-03-14T02:09:19.399Z,2.63
2023-03-14T02:11:47.239Z,1.98
2023-03-14T02:14:19.633Z,2.47
2023-03-14T02:16:47.573Z,2.60
2023-03-14T02:19:16.335Z,1.80
2023-03-14T02:21:49.364Z,1.77
2023-03-14T02:24:22.553Z,2.50
2023-03-14T02:27:16.981Z,2.40
2023-03-14T02:29:51.690Z,2.47
2023-03-14T02:32:19.803Z,3.10
2023-03-14T02:34:50.351Z,1.92
2023-03-14T02:37:19.422Z,1.83
2023-03-14T02:39:48.906Z,2.38
2023-03-14T02:42:16.735Z,2.03
2023-03-14T02:44:56.129Z,1.83
2023-03-14T02:47:28.435Z,2.78
2023-03-14T02:49:58.841Z,1.65
2023-03-14T02:52:26.507Z,2.50
2023-03-14T02:54:54.162Z,1.33
2023-03-14T02:57:21.818Z,2.10
2023-03-14T02:59:49.469Z,2.10
2023-03-14T03:02:18.497Z,1.88
2023-03-14T03:04:46.144Z,2.55
2023-03-14T03:07:13.825Z,1.47
2023-03-14T03:09:41.383Z,1.88
2023-03-14T03:12:09.086Z,1.98
2023-03-14T03:14:38.397Z,1.92
2023-03-14T03:17:05.968Z,1.90
2023-03-14T03:19:35.472Z,2.27
2023-03-14T03:22:03.283Z,1.90
2023-03-14T03:24:30.902Z,2.15
2023-03-14T03:26:58.685Z,2.58
2023-03-14T03:29:26.419Z,2.17
2023-03-14T03:31:54.118Z,2.67
2023-03-14T03:34:21.759Z,1.98
2023-03-14T03:36:50.885Z,1.98
2023-03-14T03:39:18.646Z,2.15
2023-03-14T03:41:46.334Z,2.05
2023-03-14T03:44:14.783Z,2.50
2023-03-14T03:46:42.423Z,2.00
2023-03-14T03:49:10.035Z,2.63
2023-03-14T03:51:37.645Z,2.53
2023-03-14T03:54:06.771Z,2.33
2023-03-14T03:56:34.421Z,2.60
2023-03-14T03:59:02.074Z,2.15
2023-03-14T04:01:29.729Z,1.73
2023-03-14T04:03:57.636Z,3.30
2023-03-14T04:06:25.574Z,2.40
2023-03-14T04:08:53.305Z,2.53
2023-03-14T04:11:22.345Z,1.50
2023-03-14T04:13:50.000Z,2.33
2023-03-14T04:16:19.473Z,2.05
2023-03-14T04:18:47.154Z,2.50
2023-03-14T04:21:14.916Z,2.57
2023-03-14T04:23:42.534Z,1.92
2023-03-14T04:26:10.145Z,1.95
2023-03-14T04:28:40.094Z,2.00
2023-03-14T04:31:11.203Z,2.33
2023-03-14T04:33:38.901Z,1.90
2023-03-14T04:36:07.190Z,2.10
2023-03-14T04:38:35.044Z,1.73
2023-03-14T04:41:02.998Z,2.08
2023-03-14T04:43:30.645Z,2.45
2023-03-14T04:45:59.796Z,1.90
2023-03-14T04:48:27.937Z,2.30
2023-03-14T04:50:55.817Z,2.58
2023-03-14T04:53:23.507Z,2.08
2023-03-14T04:55:51.703Z,2.45
2023-03-14T04:58:19.626Z,1.70
2023-03-14T05:00:47.713Z,2.15
2023-03-14T05:03:18.562Z,2.25
2023-03-14T05:05:46.643Z,1.75
2023-03-14T05:08:14.324Z,1.73
2023-03-14T05:10:42.084Z,2.30
2023-03-14T05:13:09.703Z,2.38
2023-03-14T05:15:37.387Z,2.22
2023-03-14T05:18:05.310Z,2.35
2023-03-14T05:20:34.416Z,1.70
2023-03-14T05:23:02.021Z,2.37
2023-03-14T05:25:31.548Z,2.40
2023-03-14T05:28:00.224Z,1.75
2023-03-14T05:30:29.002Z,2.60
2023-03-14T05:32:56.737Z,2.80
2023-03-14T05:35:24.275Z,1.80
2023-03-14T05:37:53.266Z,2.55
2023-03-14T05:40:20.901Z,2.97
2023-03-14T05:42:48.491Z,2.35
2023-03-14T05:45:16.149Z,1.98
2023-03-14T05:47:43.786Z,2.17
2023-03-14T05:50:12.141Z,2.05
2023-03-14T05:52:39.830Z,2.17
2023-03-14T05:55:09.358Z,2.22
2023-03-14T05:57:37.049Z,2.58
2023-03-14T06:00:05.050Z,2.60
2023-03-14T06:02:32.719Z,2.85
2023-03-14T06:05:00.364Z,2.30
2023-03-14T06:07:27.942Z,2.35
2023-03-14T06:09:55.534Z,2.53
2023-03-14T06:12:24.604Z,3.40
2023-03-14T06:14:52.283Z,2.40
2023-03-14T06:17:19.880Z,2.55
2023-03-14T06:19:47.527Z,2.38
2023-03-14T06:22:15.478Z,3.20
2023-03-14T06:24:43.095Z,3.40
2023-03-14T06:27:10.656Z,2.90
2023-03-14T06:29:39.726Z,2.50
2023-03-14T06:32:07.396Z,2.58
2023-03-14T06:34:35.056Z,1.92
2023-03-14T06:37:02.763Z,2.13
2023-03-14T06:39:30.984Z,2.80
2023-03-14T06:41:58.625Z,2.00
2023-03-14T06:44:26.257Z,2.08
2023-03-14T06:46:55.429Z,1.90
2023-03-14T06:49:23.038Z,1.57
2023-03-14T06:51:50.691Z,1.83
2023-03-14T06:54:18.326Z,1.70
2023-03-14T06:56:45.964Z,1.35
2023-03-14T06:59:13.658Z,1.42
2023-03-14T07:01:41.404Z,1.13
2023-03-14T07:04:10.585Z,1.50
2023-03-14T07:06:38.675Z,1.20
2023-03-14T07:09:06.421Z,0.70
2023-03-14T07:11:34.095Z,0.75
2023-03-14T07:14:01.665Z,0.63
2023-03-14T07:16:32.395Z,0.82
2023-03-14T07:18:59.985Z,0.73
2023-03-14T07:21:29.236Z,0.60
2023-03-14T07:23:57.079Z,0.70
2023-03-14T07:26:24.773Z,0.63
2023-03-14T07:28:52.480Z,0.70
2023-03-14T07:31:20.279Z,0.90
2023-03-14T07:33:47.898Z,0.70
2023-03-14T07:36:15.606Z,0.50
2023-03-14T07:38:44.784Z,0.50
2023-03-14T07:41:12.666Z,0.63
2023-03-14T07:43:40.363Z,0.60
2023-03-14T07:46:08.239Z,0.50
2023-03-14T07:48:36.085Z,0.52
2023-03-14T07:51:03.698Z,0.70
2023-03-14T07:53:31.317Z,0.75
2023-03-14T07:56:00.380Z,0.80
2023-03-14T07:58:28.009Z,0.70
2023-03-14T08:00:55.676Z,0.50
2023-03-14T08:03:23.344Z,0.60
2023-03-14T08:05:51.397Z,0.70
2023-03-14T08:08:19.393Z,0.80
2023-03-14T08:10:47.374Z,0.73
2023-03-14T08:13:16.568Z,0.60
2023-03-14T08:15:44.233Z,0.70
2023-03-14T08:18:11.916Z,0.68
2023-03-14T08:20:39.643Z,0.55
2023-03-14T08:23:07.286Z,0.60
2023-03-14T08:25:35.184Z,0.60
2023-03-14T08:28:02.981Z,0.50
2023-03-14T08:30:32.174Z,0.60
2023-03-14T08:33:00.257Z,0.40
2023-03-14T08:35:28.117Z,0.57
2023-03-14T08:37:55.795Z,0.50
2023-03-14T08:40:23.479Z,0.57
2023-03-14T08:42:51.067Z,0.57
2023-03-14T08:45:19.067Z,0.80
2023-03-14T08:47:48.217Z,0.65
2023-03-14T08:50:16.770Z,0.40
2023-03-14T08:52:44.508Z,0.60
2023-03-14T08:55:12.389Z,0.68
2023-03-14T08:57:40.065Z,0.70
2023-03-14T09:00:11.731Z,0.60
2023-03-14T09:02:39.489Z,0.60
2023-03-14T09:05:09.215Z,0.73
2023-03-14T09:07:36.821Z,0.73
2023-03-14T09:10:04.721Z,0.65
2023-03-14T09:12:32.541Z,0.73
2023-03-14T09:15:00.194Z,0.82
2023-03-14T09:17:27.775Z,0.67
2023-03-14T09:19:55.358Z,0.68
2023-03-14T09:22:24.821Z,0.70
2023-03-14T09:24:52.429Z,0.63
2023-03-14T09:27:20.023Z,0.90
2023-03-14T09:29:47.731Z,0.63
2023-03-14T09:32:15.470Z,0.85
2023-03-14T09:34:43.038Z,0.70
2023-03-14T09:37:10.681Z,1.83
2023-03-14T09:39:40.018Z,1.10
2023-03-14T09:42:10.111Z,0.73
2023-03-14T09:44:39.703Z,1.15
2023-03-14T09:47:08.432Z,0.80
2023-03-14T09:49:37.844Z,0.60
2023-03-14T09:52:09.042Z,0.82
2023-03-14T09:54:38.108Z,0.60
2023-03-14T09:57:08.595Z,1.00
2023-03-14T09:59:37.344Z,0.68
2023-03-14T10:02:13.708Z,1.00
2023-03-14T10:04:45.099Z,1.15
2023-03-14T10:07:15.860Z,0.73
2023-03-14T10:09:45.442Z,1.23
2023-03-14T10:12:14.491Z,1.30
2023-03-14T10:14:48.185Z,1.00
2023-03-14T10:17:16.829Z,0.90
2023-03-14T10:19:54.880Z,1.33
2023-03-14T10:22:23.569Z,1.42
2023-03-14T10:24:53.974Z,1.38
2023-03-14T10:27:24.120Z,1.25
2023-03-14T10:29:59.417Z,1.40
2023-03-14T10:32:34.227Z,1.37
2023-03-14T10:35:11.041Z,1.48
2023-03-14T10:37:49.831Z,1.30
2023-03-14T10:40:17.738Z,1.40
2023-03-14T10:42:48.772Z,1.10
2023-03-14T10:45:27.384Z,1.10
2023-03-14T10:47:54.947Z,1.20
2023-03-14T10:50:26.651Z,1.52
2023-03-14T10:53:02.515Z,1.50
2023-03-14T10:55:30.688Z,1.42
2023-03-14T10:57:59.947Z,1.20
2023-03-14T11:00:27.617Z,1.30
2023-03-14T11:03:06.651Z,1.25
2023-03-14T11:05:36.523Z,1.20
2023-03-14T11:08:09.665Z,1.13
2023-03-14T11:10:38.619Z,1.37
2023-03-14T11:13:14.868Z,1.35
2023-03-14T11:15:43.938Z,1.60
2023-03-14T11:18:24.484Z,1.45
2023-03-14T11:20:54.875Z,1.48
2023-03-14T11:23:23.650Z,1.30
2023-03-14T11:25:56.114Z,1.13
2023-03-14T11:28:28.164Z,1.42
2023-03-14T11:30:56.707Z,1.30
2023-03-14T11:33:26.729Z,1.73
2023-03-14T11:35:57.583Z,1.40
2023-03-14T11:38:32.166Z,1.40
2023-03-14T11:41:00.547Z,1.50
2023-03-14T11:43:31.754Z,1.50
2023-03-14T11:46:03.860Z,1.45
2023-03-14T11:48:35.533Z,1.23
2023-03-14T11:51:06.253Z,1.60
2023-03-14T11:53:41.700Z,1.60
2023-03-14T11:56:13.300Z,1.55
2023-03-14T11:58:46.025Z,1.30
2023-03-14T12:01:15.686Z,1.53
2023-03-14T12:03:45.140Z,1.30
2023-03-14T12:06:17.920Z,1.75
2023-03-14T12:08:49.758Z,1.40
2023-03-14T12:11:20.256Z,1.42
2023-03-14T12:13:51.247Z,1.53
2023-03-14T12:16:28.543Z,1.30
2023-03-14T12:18:56.343Z,1.63
2023-03-14T12:21:24.929Z,1.40
2023-03-14T12:23:54.414Z,2.30
2023-03-14T12:26:23.339Z,1.60
2023-03-14T12:28:53.330Z,1.73
2023-03-14T12:31:40.318Z,1.30
2023-03-14T12:34:22.967Z,2.28
2023-03-14T12:36:56.135Z,2.53
2023-03-14T12:39:31.763Z,1.60
2023-03-14T12:42:05.326Z,1.50
2023-03-14T12:44:48.273Z,2.08
2023-03-14T12:47:43.412Z,2.22
2023-03-14T12:50:15.660Z,2.30
2023-03-14T12:52:49.811Z,2.07
2023-03-14T12:55:20.869Z,2.63
2023-03-14T12:57:50.956Z,1.90
2023-03-14T13:00:22.298Z,1.50
2023-03-14T13:02:50.700Z,1.63
2023-03-14T13:05:20.448Z,1.50
2023-03-14T13:08:05.350Z,2.42
2023-03-14T13:10:42.237Z,1.70
2023-03-14T13:13:16.456Z,1.30
2023-03-14T13:15:46.159Z,1.63
2023-03-14T13:18:15.232Z,1.43
2023-03-14T13:20:46.360Z,1.60
2023-03-14T13:23:23.946Z,1.42
2023-03-14T13:25:51.602Z,1.58
2023-03-14T13:28:19.269Z,1.88
2023-03-14T13:30:49.103Z,1.73
2023-03-14T13:33:17.673Z,1.92
2023-03-14T13:35:48.915Z,1.55
2023-03-14T13:38:20.481Z,1.45
2023-03-14T13:40:51.732Z,1.15
2023-03-14T13:43:20.678Z,1.30
2023-03-14T13:45:52.535Z,1.30
2023-03-14T13:48:20.835Z,1.40
2023-03-14T13:50:53.220Z,1.38
2023-03-14T13:53:20.880Z,1.55
2023-03-14T13:55:48.678Z,1.10
2023-03-14T13:58:22.893Z,1.20
2023-03-14T14:01:00.468Z,1.60
2023-03-14T14:03:28.652Z,1.40
2023-03-14T14:05:57.482Z,1.40
2023-03-14T14:08:25.445Z,1.40
2023-03-14T14:10:56.287Z,1.33
2023-03-14T14:13:24.659Z,1.70
2023-03-14T14:15:53.904Z,1.38
2023-03-14T14:18:25.972Z,1.50
2023-03-14T14:20:53.598Z,1.70
2023-03-14T14:23:26.148Z,1.27
2023-03-14T14:25:53.905Z,1.27
2023-03-14T14:28:25.943Z,1.42
2023-03-14T14:31:02.119Z,1.38
2023-03-14T14:33:31.122Z,1.37
2023-03-14T14:35:59.666Z,1.50
2023-03-14T14:38:27.392Z,1.20
2023-03-14T14:40:56.804Z,1.30
2023-03-14T14:43:25.684Z,1.42
2023-03-14T14:45:54.388Z,1.13
2023-03-14T14:48:23.456Z,1.85
2023-03-14T14:50:57.541Z,1.40
2023-03-14T14:53:26.715Z,1.45
2023-03-14T14:55:55.448Z,1.45
2023-03-14T14:58:25.691Z,1.33
2023-03-14T15:00:55.398Z,1.42
2023-03-14T15:03:23.136Z,1.80
2023-03-14T15:05:50.781Z,1.63
2023-03-14T15:08:19.693Z,0.90
2023-03-14T15:10:47.304Z,0.90
2023-03-14T15:13:15.092Z,1.00
2023-03-14T15:15:44.314Z,1.40
2023-03-14T15:18:16.193Z,1.27
2023-03-14T15:20:44.152Z,0.88
2023-03-14T15:23:12.432Z,1.00
2023-03-14T15:25:54.544Z,0.80
2023-03-14T15:28:23.936Z,0.88
2023-03-14T15:30:52.524Z,1.10
2023-03-14T15:33:20.423Z,0.80
2023-03-14T15:35:48.540Z,0.87
2023-03-14T15:38:17.257Z,0.95
2023-03-14T15:40:46.153Z,0.90
2023-03-14T15:43:13.772Z,0.90
2023-03-14T15:45:42.448Z,0.98
2023-03-14T15:48:14.565Z,0.90
2023-03-14T15:50:42.117Z,1.17
2023-03-14T15:53:09.689Z,1.30
2023-03-14T15:55:37.285Z,1.13
2023-03-14T15:58:06.397Z,1.25
2023-03-14T16:00:35.683Z,1.00
2023-03-14T16:03:03.314Z,0.93
2023-03-14T16:05:30.899Z,1.15
2023-03-14T16:07:58.448Z,1.20
2023-03-14T16:10:26.104Z,0.80
2023-03-14T16:12:53.720Z,0.73
2023-03-14T16:15:22.607Z,0.70
2023-03-14T16:17:53.973Z,0.70
2023-03-14T16:20:21.620Z,0.85
2023-03-14T16:22:49.423Z,0.93
2023-03-14T16:25:18.886Z,0.80
2023-03-14T16:27:46.634Z,0.73
2023-03-14T16:30:15.024Z,0.80
2023-03-14T16:32:44.057Z,1.13
2023-03-14T16:35:12.021Z,1.00
2023-03-14T16:37:39.611Z,0.90
2023-03-14T16:40:12.736Z,0.80
2023-03-14T16:42:54.969Z,0.75
2023-03-14T16:45:29.334Z,0.80
2023-03-14T16:47:58.458Z,0.90
2023-03-14T16:50:26.042Z,0.80
2023-03-14T16:52:55.352Z,0.70
2023-03-14T16:55:23.334Z,0.73
2023-03-14T16:57:50.979Z,0.52
2023-03-14T17:00:19.071Z,0.47
2023-03-14T17:02:46.661Z,0.50
2023-03-14T17:05:15.617Z,0.43
2023-03-14T17:07:43.158Z,0.47
2023-03-14T17:10:11.365Z,0.70
2023-03-14T17:12:39.098Z,0.63
2023-03-14T17:15:07.181Z,0.33
2023-03-14T17:17:34.893Z,0.40
2023-03-14T17:20:02.486Z,0.50
2023-03-14T17:22:32.907Z,0.60
2023-03-14T17:25:01.438Z,0.60
2023-03-14T17:27:29.208Z,0.30
2023-03-14T17:29:56.905Z,0.88
2023-03-14T17:32:25.532Z,0.30
2023-03-14T17:34:54.635Z,0.73
2023-03-14T17:37:22.299Z,0.50
2023-03-14T17:39:51.245Z,0.90
2023-03-14T17:42:18.819Z,0.68
2023-03-14T17:44:46.726Z,0.98
2023-03-14T17:47:14.507Z,0.60
2023-03-14T17:49:42.054Z,0.57
2023-03-14T17:52:12.857Z,0.43
2023-03-14T17:54:40.679Z,1.48
2023-03-14T17:57:09.723Z,0.95
2023-03-14T17:59:37.335Z,0.60
2023-03-14T18:02:05.569Z,0.80
2023-03-14T18:04:33.364Z,0.63
2023-03-14T18:07:01.006Z,0.50
2023-03-14T18:09:28.570Z,0.80
2023-03-14T18:12:07.125Z,0.73
2023-03-14T18:14:36.834Z,0.82
2023-03-14T18:17:05.463Z,0.70
2023-03-14T18:19:33.194Z,0.70
2023-03-14T18:22:00.774Z,0.80
2023-03-14T18:24:29.088Z,0.40
2023-03-14T18:26:56.815Z,0.57
2023-03-14T18:29:24.382Z,0.93
2023-03-14T18:31:53.394Z,0.40
2023-03-14T18:34:21.028Z,1.35
2023-03-14T18:36:48.597Z,0.70
2023-03-14T18:39:16.168Z,0.63
2023-03-14T18:41:43.732Z,0.40
2023-03-14T18:44:11.704Z,1.52
2023-03-14T18:46:39.400Z,1.17
2023-03-14T18:49:08.786Z,0.73
2023-03-14T18:51:36.399Z,1.15
2023-03-14T18:54:09.909Z,1.13
2023-03-14T18:56:38.371Z,0.77
2023-03-14T18:59:05.918Z,0.70
2023-03-14T19:01:34.514Z,1.25
2023-03-14T19:04:02.679Z,1.50
2023-03-14T19:06:33.147Z,1.00
2023-03-14T19:09:00.873Z,0.57
2023-03-14T19:11:28.553Z,0.75
2023-03-14T19:13:57.023Z,1.00
2023-03-14T19:16:25.430Z,0.80
2023-03-14T19:18:55.293Z,0.50
2023-03-14T19:21:30.090Z,0.55
2023-03-14T19:23:59.676Z,0.90
2023-03-14T19:26:29.807Z,1.33
2023-03-14T19:28:57.580Z,0.73
2023-03-14T19:31:25.561Z,0.80
2023-03-14T19:33:53.276Z,0.82
2023-03-14T19:36:22.710Z,0.75
2023-03-14T19:38:54.238Z,1.15
2023-03-14T19:41:24.332Z,0.60
2023-03-14T19:43:52.242Z,1.33
2023-03-14T19:46:20.052Z,1.00
2023-03-14T19:48:48.623Z,1.05
2023-03-14T19:51:16.795Z,0.75
2023-03-14T19:53:45.126Z,1.20
2023-03-14T19:56:13.022Z,0.97
2023-03-14T19:58:42.286Z,0.77
2023-03-14T20:01:10.055Z,0.95
2023-03-14T20:03:37.845Z,0.98
2023-03-14T20:06:05.806Z,1.35
2023-03-14T20:08:33.393Z,0.93
2023-03-14T20:11:01.184Z,0.90
2023-03-14T20:13:28.933Z,0.98
2023-03-14T20:15:57.874Z,0.77
2023-03-14T20:18:25.442Z,1.05
2023-03-14T20:20:53.280Z,0.70
2023-03-14T20:23:21.050Z,0.30
2023-03-14T20:25:53.946Z,0.75
2023-03-14T20:28:21.790Z,0.68
2023-03-14T20:30:49.467Z,0.90
2023-03-14T20:33:19.912Z,1.07
2023-03-14T20:35:48.044Z,0.85
2023-03-14T20:38:15.561Z,1.02
2023-03-14T20:40:46.415Z,0.82
2023-03-14T20:43:14.041Z,0.60
2023-03-14T20:45:41.799Z,1.20
2023-03-14T20:48:09.348Z,0.70
2023-03-14T20:50:38.489Z,1.10
2023-03-14T20:53:06.133Z,0.90
2023-03-14T20:55:33.745Z,1.50
2023-03-14T20:58:01.577Z,0.90
2023-03-14T21:00:29.178Z,0.80
2023-03-14T21:02:56.770Z,0.85
2023-03-14T21:05:25.028Z,0.68
2023-03-14T21:07:54.033Z,1.20
2023-03-14T21:10:21.967Z,0.90
2023-03-14T21:12:52.831Z,1.10
2023-03-14T21:15:20.435Z,0.85
2023-03-14T21:17:47.990Z,0.90
2023-03-14T21:20:16.638Z,1.27
2023-03-14T21:22:44.213Z,1.03
2023-03-14T21:25:13.176Z,0.65
2023-03-14T21:27:40.828Z,0.90
2023-03-14T21:30:09.051Z,0.80
2023-03-14T21:32:36.654Z,0.60
2023-03-14T21:35:04.430Z,1.00
2023-03-14T21:37:32.037Z,0.70
2023-03-14T21:39:59.573Z,0.77
2023-03-14T21:42:28.723Z,0.75
2023-03-14T21:44:56.245Z,0.90
2023-03-14T21:47:24.417Z,0.53
2023-03-14T21:49:52.012Z,0.82
2023-03-14T21:52:19.556Z,0.47
2023-03-14T21:54:47.111Z,1.30
2023-03-14T21:57:15.498Z,0.63
2023-03-14T21:59:44.960Z,1.07
2023-03-14T22:02:13.775Z,0.80
2023-03-14T22:04:41.981Z,1.98
2023-03-14T22:07:10.365Z,1.02
2023-03-14T22:09:39.938Z,0.75
2023-03-14T22:12:07.680Z,0.70
2023-03-14T22:14:35.517Z,0.80
2023-03-14T22:17:04.620Z,0.50
2023-03-14T22:19:48.280Z,0.50
2023-03-14T22:22:15.971Z,1.10
2023-03-14T22:24:43.593Z,1.13
2023-03-14T22:27:13.178Z,0.60
2023-03-14T22:29:40.918Z,0.73
2023-03-14T22:32:10.086Z,1.00
2023-03-14T22:34:37.668Z,0.70
2023-03-14T22:37:06.472Z,1.00
2023-03-14T22:39:34.238Z,0.60
2023-03-14T22:42:01.935Z,0.50
2023-03-14T22:44:32.640Z,0.68
2023-03-14T22:47:01.065Z,0.73
2023-03-14T22:49:31.216Z,0.77
2023-03-14T22:51:58.991Z,0.50
2023-03-14T22:54:26.546Z,0.77
2023-03-14T22:56:54.081Z,0.70
2023-03-14T22:59:21.652Z,0.50
2023-03-14T23:01:49.192Z,0.80
2023-03-14T23:04:16.750Z,0.98
2023-03-14T23:06:45.699Z,0.70
2023-03-14T23:09:13.246Z,1.00
2023-03-14T23:11:41.743Z,0.68
2023-03-14T23:14:09.524Z,0.70
2023-03-14T23:16:40.625Z,0.80
2023-03-14T23:19:09.751Z,0.65
2023-03-14T23:21:37.653Z,0.73
2023-03-14T23:24:06.920Z,0.80
2023-03-14T23:26:36.175Z,0.73
2023-03-14T23:29:05.563Z,0.65
2023-03-14T23:31:33.545Z,0.63
2023-03-14T23:34:01.111Z,0.80
2023-03-14T23:36:29.592Z,0.75
2023-03-14T23:38:57.204Z,0.70
2023-03-14T23:41:26.109Z,1.17
2023-03-14T23:43:53.691Z,1.20
2023-03-14T23:46:21.724Z,0.80
2023-03-14T23:48:49.337Z,0.90
2023-03-14T23:51:17.333Z,0.60
2023-03-14T23:53:45.422Z,0.60
2023-03-14T23:56:13.684Z,0.82
2023-03-14T23:58:42.966Z,0.70
